VECC/CCU METAR and TAF weather

Enter ICAO airport designator
Station Type Date Time Source
VECC METAR 2022/12/05 15:00 UTC NOAA

VECC 051500Z 00000KT 2500 HZ NSC 22/16 Q1013 NOSIG


Station Type Date Time Source
VECC Decoded METAR 2022/12/05 15:00 UTC NOAA

Calcutta / Dum Dum, India (VECC) 22-39N 088-27E 6M
Dec 05, 2022 - 10:00 AM EST / 2022.12.05 1500 UTC
Wind: Calm:0
Visibility: 1 mile(s):0
Weather: haze
Temperature: 71 F (22 C)
Dew Point: 60 F (16 C)
Relative Humidity: 68%
Pressure (altimeter): 29.91 in. Hg (1013 hPa)
ob: VECC 051500Z 00000KT 2500 HZ NSC 22/16 Q1013 NOSIG
cycle: 15

Station Type Date Time Source
VECC TAF 2022/12/05 12:45 UTC NOAA

VECC 051100Z 0512/0618 35006KT 2600 HZ NSC
BECMG 0601/0603 1200 BR
BECMG 0603/0605 2500 HZ
BECMG 0607/0609 3200 HZ
BECMG 0616/0618 2600 HZ

Example: see airport list